Time;durP1;ratioP1;P1;durP2;ratioP2;P2;SDS_P1;SDS_P2;PMS_P1;PMS_P2;Temp;Humidity;BMP_temperature;BMP_pressure;BME280_temperature;BME280_humidity;BME280_pressure;Samples;Min_cycle;Max_cycle;Signal;HPM_P1;HPM_P2
2023/04/24 00:02:13;;;;;;;7.20;2.05;;;19.80;76.40;;;;;;5017618;28;20053;-83
2023/04/24 00:04:44;;;;;;;9.50;1.88;;;19.90;76.50;;;;;;5018901;28;20100;-84
2023/04/24 00:07:10;;;;;;;7.85;1.90;;;19.90;76.50;;;;;;5015394;28;20048;-84
2023/04/24 00:09:36;;;;;;;7.68;2.05;;;19.80;76.40;;;;;;5017137;28;20050;-84
2023/04/24 00:12:04;;;;;;;9.30;1.77;;;19.80;76.40;;;;;;5019055;28;20451;-84
2023/04/24 00:14:30;;;;;;;7.40;2.22;;;19.80;76.40;;;;;;5010779;28;20033;-84
2023/04/24 00:16:55;;;;;;;5.10;1.50;;;19.80;76.50;;;;;;5020615;28;20021;-84
2023/04/24 00:19:21;;;;;;;10.05;1.65;;;19.80;76.40;;;;;;5016820;28;20026;-84
2023/04/24 00:21:49;;;;;;;3.35;1.95;;;19.80;76.50;;;;;;5037368;28;20073;-83
2023/04/24 00:24:16;;;;;;;3.17;1.23;;;19.80;76.50;;;;;;5015905;28;20137;-84
2023/04/24 00:26:42;;;;;;;4.95;1.77;;;19.80;76.60;;;;;;5012402;28;20188;-84
2023/04/24 00:29:07;;;;;;;6.90;1.45;;;19.80;76.50;;;;;;5014040;28;20105;-84
2023/04/24 00:31:34;;;;;;;4.90;1.45;;;19.80;76.50;;;;;;5013786;28;20053;-83
2023/04/24 00:34:02;;;;;;;9.38;1.98;;;19.80;76.50;;;;;;5005415;28;20056;-84
2023/04/24 00:36:27;;;;;;;3.13;1.50;;;19.80;76.50;;;;;;5011797;28;20113;-84
2023/04/24 00:38:54;;;;;;;3.50;1.52;;;19.80;76.60;;;;;;5014974;28;20113;-83
2023/04/24 00:41:20;;;;;;;4.93;1.30;;;19.80;76.60;;;;;;5015532;28;20064;-84
2023/04/24 00:43:46;;;;;;;5.60;1.63;;;19.70;76.50;;;;;;5014093;28;20056;-83
2023/04/24 00:46:13;;;;;;;9.02;1.58;;;19.80;76.60;;;;;;5014973;28;20034;-83
2023/04/24 00:48:42;;;;;;;4.30;1.40;;;19.80;76.60;;;;;;5021667;28;20026;-83
2023/04/24 00:51:08;;;;;;;3.67;1.48;;;19.70;76.50;;;;;;5016354;28;20743;-83
2023/04/24 00:53:33;;;;;;;2.00;1.38;;;19.80;76.60;;;;;;5017513;28;20023;-83
2023/04/24 00:56:00;;;;;;;7.63;1.58;;;19.70;76.60;;;;;;5017427;28;20386;-84
2023/04/24 00:58:26;;;;;;;3.25;1.25;;;19.70;76.50;;;;;;5019245;28;20026;-83
2023/04/24 01:00:53;;;;;;;6.10;1.20;;;19.70;76.60;;;;;;5020317;28;20023;-83
2023/04/24 01:03:28;;;;;;;6.07;1.25;;;19.70;76.60;;;;;;5021750;28;20033;-83
2023/04/24 01:05:55;;;;;;;4.32;1.33;;;19.70;76.50;;;;;;5019556;28;20112;-83
2023/04/24 01:08:23;;;;;;;3.13;1.35;;;19.70;76.60;;;;;;5020221;28;20022;-84
2023/04/24 01:10:51;;;;;;;3.00;1.55;;;19.70;76.60;;;;;;5017627;28;20025;-84
2023/04/24 01:13:17;;;;;;;4.57;1.35;;;19.70;76.60;;;;;;5011407;28;20025;-84
2023/04/24 01:15:43;;;;;;;3.47;1.20;;;19.70;76.60;;;;;;5016954;28;20508;-84
2023/04/24 01:18:08;;;;;;;1.63;0.90;;;19.70;76.70;;;;;;5012401;28;20022;-83
2023/04/24 01:20:36;;;;;;;7.82;1.42;;;19.70;76.70;;;;;;5014318;28;20426;-84
2023/04/24 01:23:02;;;;;;;4.05;1.33;;;19.70;76.70;;;;;;5014568;28;20034;-84
2023/04/24 01:25:28;;;;;;;2.65;1.60;;;19.70;76.70;;;;;;5006531;28;20030;-84
2023/04/24 01:27:54;;;;;;;6.68;1.17;;;19.70;76.70;;;;;;5008497;28;20083;-83
2023/04/24 01:30:19;;;;;;;3.13;1.30;;;19.70;76.70;;;;;;5012150;28;20064;-83
2023/04/24 01:32:45;;;;;;;4.65;1.30;;;19.70;76.70;;;;;;5011452;28;20014;-84
2023/04/24 01:35:11;;;;;;;2.58;1.10;;;19.70;76.70;;;;;;5014771;28;20030;-85
2023/04/24 01:37:39;;;;;;;4.10;1.17;;;19.70;76.70;;;;;;5012390;28;20037;-84
2023/04/24 01:40:07;;;;;;;4.38;1.10;;;19.70;76.70;;;;;;5018037;28;20553;-84
2023/04/24 01:42:34;;;;;;;9.18;1.52;;;19.70;76.80;;;;;;5020166;28;20084;-84
2023/04/24 01:45:00;;;;;;;2.55;1.20;;;19.70;76.70;;;;;;5018223;28;20084;-83
2023/04/24 01:47:26;;;;;;;1.42;0.98;;;19.70;76.70;;;;;;5011365;28;20482;-84
2023/04/24 01:49:52;;;;;;;2.05;1.00;;;19.70;76.70;;;;;;5003906;28;20125;-84
2023/04/24 01:52:18;;;;;;;3.35;1.20;;;19.70;76.80;;;;;;5016280;28;20021;-84
2023/04/24 01:54:44;;;;;;;1.50;0.98;;;19.70;76.80;;;;;;5012794;28;20021;-84
2023/04/24 01:57:10;;;;;;;2.65;1.00;;;19.70;76.70;;;;;;5015502;28;20022;-83
2023/04/24 01:59:36;;;;;;;5.10;0.80;;;19.60;76.70;;;;;;5016237;28;20406;-84
2023/04/24 02:02:05;;;;;;;2.35;1.02;;;19.70;76.70;;;;;;5020033;28;20021;-84
2023/04/24 02:04:31;;;;;;;3.15;0.98;;;19.70;76.80;;;;;;5015279;28;20124;-84
2023/04/24 02:06:57;;;;;;;2.60;1.00;;;19.60;76.70;;;;;;5014707;28;20098;-83
2023/04/24 02:09:22;;;;;;;1.02;0.95;;;19.60;76.70;;;;;;5013605;28;20034;-83
2023/04/24 02:11:48;;;;;;;3.47;1.00;;;19.60;76.80;;;;;;5008286;28;20057;-84
2023/04/24 02:14:13;;;;;;;1.05;0.85;;;19.60;76.80;;;;;;5014184;28;20033;-83
2023/04/24 02:16:39;;;;;;;5.70;1.20;;;19.60;77.50;;;;;;5017242;28;20022;-84
2023/04/24 02:19:05;;;;;;;3.13;1.52;;;19.60;76.80;;;;;;5011659;28;20045;-84
2023/04/24 02:21:30;;;;;;;1.25;1.10;;;19.60;76.80;;;;;;5007286;28;20018;-84
2023/04/24 02:23:57;;;;;;;1.88;1.00;;;19.60;76.80;;;;;;5010973;28;20506;-84
2023/04/24 02:26:22;;;;;;;2.08;1.20;;;19.60;76.80;;;;;;5008686;28;20026;-84
2023/04/24 02:28:48;;;;;;;3.78;1.02;;;19.60;76.80;;;;;;5011408;28;20033;-84
2023/04/24 02:31:14;;;;;;;1.33;0.90;;;19.60;76.80;;;;;;5012539;28;20022;-84
2023/04/24 02:33:39;;;;;;;1.95;0.98;;;19.60;76.70;;;;;;5011377;28;20065;-84
2023/04/24 02:36:05;;;;;;;1.83;1.15;;;19.60;76.80;;;;;;5018552;28;20380;-84
2023/04/24 02:38:30;;;;;;;4.28;1.10;;;19.60;76.80;;;;;;5012216;28;20049;-84
2023/04/24 02:40:56;;;;;;;2.38;0.98;;;19.60;76.80;;;;;;5013802;28;20025;-84
2023/04/24 02:43:22;;;;;;;1.17;0.90;;;19.60;76.80;;;;;;5016946;28;20026;-83
2023/04/24 02:45:47;;;;;;;1.67;1.05;;;19.60;76.80;;;;;;5014916;28;20022;-84
2023/04/24 02:48:13;;;;;;;3.63;1.27;;;19.60;76.80;;;;;;5017178;28;20032;-84
2023/04/24 02:50:38;;;;;;;0.80;0.80;;;19.60;76.80;;;;;;5015800;28;20022;-84
2023/04/24 02:53:04;;;;;;;1.95;1.08;;;19.60;76.80;;;;;;5013419;28;20030;-83
2023/04/24 02:55:30;;;;;;;1.88;1.00;;;19.60;76.80;;;;;;5016019;28;20390;-83
2023/04/24 02:57:55;;;;;;;2.17;1.23;;;19.60;76.80;;;;;;5013252;28;20018;-84
2023/04/24 03:00:21;;;;;;;1.67;0.93;;;19.60;76.80;;;;;;5013415;28;20029;-84
2023/04/24 03:02:46;;;;;;;2.22;0.70;;;19.60;76.80;;;;;;5014560;28;20022;-84
2023/04/24 03:05:12;;;;;;;1.02;0.90;;;19.60;76.80;;;;;;5015724;28;20532;-84
2023/04/24 03:07:38;;;;;;;2.90;1.00;;;19.60;76.80;;;;;;5014551;28;20018;-83
2023/04/24 03:10:05;;;;;;;1.58;1.13;;;19.60;76.80;;;;;;5013152;28;20617;-84
2023/04/24 03:12:31;;;;;;;1.48;1.10;;;19.60;76.80;;;;;;5009007;28;20022;-84
2023/04/24 03:14:56;;;;;;;0.95;0.73;;;19.60;76.80;;;;;;5009736;28;20026;-84
2023/04/24 03:17:22;;;;;;;2.58;1.10;;;19.60;76.90;;;;;;5007574;28;20025;-84
2023/04/24 03:19:47;;;;;;;1.20;1.10;;;19.60;76.80;;;;;;5029566;28;20021;-84
2023/04/24 03:22:13;;;;;;;1.45;0.90;;;19.50;76.80;;;;;;5013938;28;20057;-84
2023/04/24 03:24:39;;;;;;;1.05;0.90;;;19.50;76.80;;;;;;5015707;28;20120;-84
2023/04/24 03:27:04;;;;;;;2.28;0.90;;;19.60;76.80;;;;;;5011272;28;20029;-84
2023/04/24 03:29:30;;;;;;;1.77;0.80;;;19.60;76.80;;;;;;5020999;28;20029;-83
2023/04/24 03:31:55;;;;;;;1.13;0.90;;;19.60;76.80;;;;;;5012210;28;20033;-84
2023/04/24 03:34:21;;;;;;;1.42;1.10;;;19.50;76.80;;;;;;5021272;28;20018;-84
2023/04/24 03:36:49;;;;;;;3.90;1.13;;;19.50;76.80;;;;;;5016632;28;20120;-84
2023/04/24 03:39:15;;;;;;;6.57;1.63;;;19.50;76.80;;;;;;5016735;28;20032;-83
2023/04/24 03:41:41;;;;;;;3.50;1.05;;;19.60;77.10;;;;;;5016184;28;20029;-83
2023/04/24 03:44:06;;;;;;;4.25;1.05;;;19.60;77.60;;;;;;5015489;28;20029;-83
2023/04/24 03:46:32;;;;;;;2.03;1.02;;;19.50;77.80;;;;;;5017508;28;20040;-83
2023/04/24 03:48:57;;;;;;;1.98;0.95;;;19.60;78.00;;;;;;5015273;28;20022;-83
2023/04/24 03:51:23;;;;;;;2.10;1.20;;;19.60;78.10;;;;;;5018221;28;20032;-83
2023/04/24 03:53:49;;;;;;;2.95;1.05;;;19.60;78.10;;;;;;5017754;28;20530;-83
2023/04/24 03:56:15;;;;;;;4.32;0.70;;;19.60;78.20;;;;;;5020687;28;20246;-82
2023/04/24 03:58:40;;;;;;;1.15;1.00;;;19.60;78.20;;;;;;5018313;28;20537;-82
2023/04/24 04:01:06;;;;;;;2.15;1.10;;;19.60;78.30;;;;;;5017698;28;20105;-82
2023/04/24 04:03:32;;;;;;;1.75;1.10;;;19.60;78.20;;;;;;5014189;28;20041;-82
2023/04/24 04:05:57;;;;;;;8.25;1.20;;;19.70;78.20;;;;;;5019172;28;20077;-82
2023/04/24 04:08:23;;;;;;;1.23;0.93;;;19.70;79.00;;;;;;5012548;28;20018;-82
2023/04/24 04:10:48;;;;;;;2.83;0.85;;;19.70;78.30;;;;;;5017120;28;20439;-82
2023/04/24 04:13:14;;;;;;;3.05;1.02;;;19.70;78.30;;;;;;5019405;28;20032;-83
2023/04/24 04:15:40;;;;;;;4.20;1.10;;;19.70;78.30;;;;;;5021441;28;20026;-82
2023/04/24 04:18:06;;;;;;;0.98;0.63;;;19.70;78.20;;;;;;5013372;28;20489;-82
2023/04/24 04:20:31;;;;;;;1.95;1.08;;;19.70;78.20;;;;;;5016686;28;20105;-82
2023/04/24 04:22:57;;;;;;;0.85;0.85;;;19.70;78.10;;;;;;5019528;28;20052;-83
2023/04/24 04:25:22;;;;;;;4.93;1.15;;;19.70;78.00;;;;;;5015443;28;20040;-83
2023/04/24 04:27:48;;;;;;;10.10;1.20;;;19.70;78.00;;;;;;5024245;28;20018;-82
2023/04/24 04:30:14;;;;;;;8.93;1.30;;;19.80;78.30;;;;;;5023017;28;20025;-82
2023/04/24 04:32:40;;;;;;;6.90;1.33;;;19.80;78.30;;;;;;5019885;28;20029;-82
2023/04/24 04:35:06;;;;;;;11.45;1.23;;;19.80;78.50;;;;;;5016468;28;20109;-83
2023/04/24 04:37:33;;;;;;;4.20;1.00;;;19.80;78.90;;;;;;5020752;28;20022;-84
2023/04/24 04:40:06;;;;;;;5.15;1.20;;;19.80;79.20;;;;;;5018992;28;20026;-82
2023/04/24 04:42:33;;;;;;;5.85;1.42;;;19.80;79.40;;;;;;5012792;28;20460;-83
2023/04/24 04:44:59;;;;;;;9.85;1.02;;;19.80;79.40;;;;;;5016008;28;20022;-85
2023/04/24 04:47:26;;;;;;;3.90;1.90;;;19.80;79.40;;;;;;5017942;28;20018;-85
2023/04/24 04:49:52;;;;;;;10.23;1.08;;;19.80;79.40;;;;;;5014877;28;20025;-85
2023/04/24 04:52:18;;;;;;;18.02;1.70;;;19.90;79.50;;;;;;5016051;28;20191;-84
2023/04/24 04:54:43;;;;;;;5.05;1.27;;;19.80;79.40;;;;;;5013235;28;20056;-84
2023/04/24 04:57:10;;;;;;;1.25;0.98;;;19.90;79.40;;;;;;5009287;28;20104;-84
2023/04/24 04:59:35;;;;;;;1.70;1.20;;;19.90;79.40;;;;;;5013819;28;20036;-85
2023/04/24 05:02:01;;;;;;;4.43;1.17;;;19.90;79.30;;;;;;5013184;28;20026;-85
2023/04/24 05:04:26;;;;;;;4.03;1.10;;;19.90;79.30;;;;;;5015273;28;20029;-84
2023/04/24 05:06:52;;;;;;;5.88;1.10;;;19.90;79.30;;;;;;5006698;28;20226;-84
2023/04/24 05:09:18;;;;;;;3.75;1.10;;;19.90;79.30;;;;;;5008817;28;20567;-85
2023/04/24 05:11:44;;;;;;;1.00;0.90;;;19.90;79.30;;;;;;5009962;28;20047;-84
2023/04/24 05:14:09;;;;;;;2.67;1.48;;;19.90;80.00;;;;;;5018575;28;20363;-84
2023/04/24 05:16:36;;;;;;;1.88;1.10;;;19.90;79.20;;;;;;5013588;28;20045;-84
2023/04/24 05:19:02;;;;;;;3.95;0.82;;;19.90;79.20;;;;;;5021247;28;20045;-84
2023/04/24 05:21:27;;;;;;;3.58;1.20;;;19.90;79.10;;;;;;5013678;28;20083;-83
2023/04/24 05:23:53;;;;;;;3.10;1.35;;;19.90;79.10;;;;;;5014491;28;20139;-83
2023/04/24 05:26:19;;;;;;;4.82;0.98;;;19.90;79.10;;;;;;5021511;28;20021;-84
2023/04/24 05:28:45;;;;;;;2.60;1.42;;;20.00;78.90;;;;;;5019901;28;20469;-83
2023/04/24 05:31:12;;;;;;;9.60;2.45;;;20.00;79.20;;;;;;5014501;28;20021;-83
2023/04/24 05:33:37;;;;;;;11.30;1.88;;;20.00;79.20;;;;;;5019808;28;20467;-84
2023/04/24 05:36:03;;;;;;;9.80;1.80;;;20.00;79.20;;;;;;5020169;28;20032;-83
2023/04/24 05:38:29;;;;;;;2.85;1.88;;;20.00;79.40;;;;;;5016941;28;20026;-83
2023/04/24 05:40:55;;;;;;;6.35;1.50;;;20.00;79.50;;;;;;5018765;28;20017;-83
2023/04/24 05:43:20;;;;;;;1.73;1.45;;;20.00;79.50;;;;;;5013008;28;20475;-83
2023/04/24 05:45:46;;;;;;;2.45;1.10;;;20.00;79.40;;;;;;5014175;28;20018;-84
2023/04/24 05:48:11;;;;;;;6.70;1.90;;;20.00;79.40;;;;;;5018756;28;20029;-83
2023/04/24 05:50:37;;;;;;;5.85;1.55;;;20.00;79.40;;;;;;5019261;28;20030;-83
2023/04/24 05:53:03;;;;;;;5.25;1.55;;;20.00;79.40;;;;;;5017173;28;20040;-82
2023/04/24 05:55:30;;;;;;;4.07;1.75;;;20.00;79.40;;;;;;5012190;28;20417;-84
2023/04/24 05:57:55;;;;;;;20.15;2.00;;;20.00;79.40;;;;;;5008818;28;20146;-82
2023/04/24 06:00:21;;;;;;;12.25;2.20;;;20.00;79.70;;;;;;5012423;28;20026;-83
2023/04/24 06:02:47;;;;;;;11.32;2.38;;;20.20;79.60;;;;;;5010093;28;21270;-82
2023/04/24 06:05:12;;;;;;;19.02;2.38;;;20.20;79.40;;;;;;5016694;28;20490;-83
2023/04/24 06:07:38;;;;;;;65.57;4.40;;;20.20;79.40;;;;;;5013690;28;20029;-83
2023/04/24 06:10:04;;;;;;;12.15;2.55;;;20.30;80.30;;;;;;5017020;28;20510;-82
2023/04/24 06:12:30;;;;;;;13.85;2.42;;;20.40;79.80;;;;;;5019294;28;20528;-85
2023/04/24 06:14:55;;;;;;;10.98;2.83;;;20.50;79.30;;;;;;5019381;28;20109;-85
2023/04/24 06:17:21;;;;;;;16.90;1.90;;;20.50;78.50;;;;;;5037547;28;20030;-84
2023/04/24 06:19:47;;;;;;;22.60;2.55;;;20.50;79.00;;;;;;5015221;28;20158;-81
2023/04/24 06:22:13;;;;;;;12.43;2.15;;;20.60;78.20;;;;;;5016957;28;20048;-82
2023/04/24 06:24:39;;;;;;;18.65;2.33;;;20.60;78.00;;;;;;5023527;28;20617;-82
2023/04/24 06:27:05;;;;;;;16.00;2.05;;;20.60;77.70;;;;;;5019879;28;20035;-82
2023/04/24 06:29:31;;;;;;;10.98;2.22;;;20.60;77.50;;;;;;5010478;28;20030;-83
2023/04/24 06:31:56;;;;;;;7.07;2.17;;;20.70;77.50;;;;;;5027154;28;20052;-80
2023/04/24 06:34:22;;;;;;;7.55;2.25;;;20.70;77.30;;;;;;5011941;28;20034;-80
2023/04/24 06:36:47;;;;;;;13.27;2.00;;;20.70;77.20;;;;;;5021171;28;20026;-80
2023/04/24 06:39:13;;;;;;;8.35;2.25;;;20.80;77.00;;;;;;5021016;28;20112;-80
2023/04/24 06:41:39;;;;;;;7.95;2.58;;;20.80;76.90;;;;;;5016253;28;20113;-82
2023/04/24 06:44:05;;;;;;;12.23;1.75;;;20.80;76.80;;;;;;5025675;28;20026;-81
2023/04/24 06:46:31;;;;;;;15.15;2.08;;;20.90;76.70;;;;;;5021302;28;20026;-82
2023/04/24 06:48:57;;;;;;;9.98;2.00;;;20.90;76.60;;;;;;5020067;28;20125;-82
2023/04/24 06:51:27;;;;;;;8.52;2.33;;;20.90;76.50;;;;;;5009195;28;20038;-81
2023/04/24 06:53:53;;;;;;;;;;;21.00;76.30;;;;;;5010308;28;20018;-82
2023/04/24 06:56:19;;;;;;;13.65;2.38;;;21.00;76.20;;;;;;5015135;28;19909;-82
2023/04/24 06:58:45;;;;;;;10.27;2.15;;;21.00;76.10;;;;;;5015990;28;20053;-81
2023/04/24 07:01:11;;;;;;;11.55;2.50;;;21.00;76.10;;;;;;5016579;28;20068;-81
2023/04/24 07:03:37;;;;;;;4.95;1.60;;;21.00;76.10;;;;;;5016126;28;20022;-81
2023/04/24 07:06:03;;;;;;;17.48;2.45;;;21.00;75.90;;;;;;5013408;28;20041;-85
2023/04/24 07:08:32;;;;;;;17.48;2.30;;;21.10;76.10;;;;;;5012757;28;20116;-83
2023/04/24 07:10:59;;;;;;;11.67;1.80;;;21.10;75.80;;;;;;5016330;28;20036;-83
2023/04/24 07:13:25;;;;;;;8.48;1.88;;;21.10;75.80;;;;;;5015216;28;20121;-83
2023/04/24 07:15:52;;;;;;;22.00;1.73;;;21.00;75.90;;;;;;5035825;28;20530;-83
2023/04/24 07:18:18;;;;;;;5.20;1.85;;;21.00;75.80;;;;;;5017855;28;20033;-79
2023/04/24 07:20:44;;;;;;;20.85;2.55;;;21.00;76.00;;;;;;5016087;28;20448;-79
2023/04/24 07:23:10;;;;;;;4.20;2.40;;;21.00;75.90;;;;;;5016544;28;20044;-82
2023/04/24 07:25:36;;;;;;;21.50;2.50;;;21.00;75.80;;;;;;5015270;28;20026;-79
2023/04/24 07:28:01;;;;;;;16.67;2.13;;;21.10;75.50;;;;;;5018778;28;20017;-78
2023/04/24 07:30:28;;;;;;;8.02;2.28;;;21.10;74.60;;;;;;5010797;28;20033;-78
2023/04/24 07:32:55;;;;;;;16.08;1.73;;;21.10;74.20;;;;;;5017073;28;20528;-79
2023/04/24 07:35:20;;;;;;;8.40;1.70;;;21.10;73.80;;;;;;5010574;28;20031;-78
2023/04/24 07:37:46;;;;;;;11.25;2.00;;;21.10;73.40;;;;;;5010849;28;20517;-79
2023/04/24 07:40:13;;;;;;;5.72;2.47;;;21.10;73.20;;;;;;5003196;28;20482;-78
2023/04/24 07:42:39;;;;;;;4.78;1.90;;;21.10;72.80;;;;;;5016090;28;20160;-79
2023/04/24 07:45:05;;;;;;;7.45;2.65;;;21.10;72.50;;;;;;5016165;28;20057;-79
2023/04/24 07:47:31;;;;;;;8.38;1.70;;;21.10;72.00;;;;;;5018474;28;20022;-80
2023/04/24 07:49:57;;;;;;;2.58;1.33;;;21.10;71.90;;;;;;5007195;28;20033;-80
2023/04/24 07:52:23;;;;;;;6.15;1.75;;;21.10;71.70;;;;;;5010691;28;20112;-79
2023/04/24 07:54:49;;;;;;;13.85;6.43;;;21.20;71.60;;;;;;5014192;28;20030;-79
2023/04/24 07:57:15;;;;;;;18.30;7.28;;;21.20;71.30;;;;;;5012677;28;20026;-79
2023/04/24 07:59:41;;;;;;;7.80;4.13;;;21.20;69.70;;;;;;5012831;28;20576;-79
2023/04/24 08:02:07;;;;;;;11.15;3.70;;;21.10;66.90;;;;;;5012176;28;20126;-79
2023/04/24 08:04:33;;;;;;;5.80;2.30;;;21.00;65.40;;;;;;5014593;28;20022;-79
2023/04/24 08:06:58;;;;;;;7.95;2.10;;;21.00;64.30;;;;;;5014224;28;20377;-83
2023/04/24 08:09:24;;;;;;;2.92;1.50;;;21.00;63.60;;;;;;5013965;28;20033;-79
2023/04/24 08:11:49;;;;;;;4.72;1.65;;;21.00;62.60;;;;;;5013709;28;20033;-80
2023/04/24 08:14:15;;;;;;;4.22;1.30;;;21.00;62.00;;;;;;5015820;28;20021;-80
2023/04/24 08:16:41;;;;;;;2.08;0.95;;;20.90;62.10;;;;;;5015558;28;20530;-79
2023/04/24 08:19:07;;;;;;;1.40;1.27;;;20.90;61.70;;;;;;5014767;28;20057;-82
2023/04/24 08:21:32;;;;;;;10.85;1.20;;;20.80;61.70;;;;;;5016917;28;20482;-84
2023/04/24 08:23:58;;;;;;;5.55;1.08;;;20.80;60.50;;;;;;5010209;28;20026;-84
2023/04/24 08:26:24;;;;;;;3.28;1.60;;;20.70;60.60;;;;;;5013440;28;20072;-85
2023/04/24 08:28:50;;;;;;;4.90;1.10;;;20.80;61.30;;;;;;5010482;28;20117;-80
2023/04/24 08:31:15;;;;;;;4.38;1.30;;;20.70;62.00;;;;;;5011747;28;20886;-83
2023/04/24 08:33:41;;;;;;;2.58;1.25;;;20.80;62.70;;;;;;5007301;28;20057;-83
2023/04/24 08:36:07;;;;;;;13.23;1.70;;;20.80;63.20;;;;;;5008136;28;20045;-83
2023/04/24 08:38:33;;;;;;;3.70;1.42;;;20.80;63.90;;;;;;5010712;28;20025;-80
2023/04/24 08:41:00;;;;;;;19.30;2.72;;;20.80;64.00;;;;;;5013117;28;20026;-81
2023/04/24 08:43:27;;;;;;;16.35;1.80;;;20.90;64.80;;;;;;5017752;28;20065;-81
2023/04/24 08:45:55;;;;;;;25.92;1.70;;;20.90;65.80;;;;;;5022066;28;20154;-80
2023/04/24 08:48:22;;;;;;;6.05;1.50;;;20.90;66.50;;;;;;5019531;28;20121;-80
2023/04/24 08:50:50;;;;;;;1.90;1.05;;;20.90;66.80;;;;;;5018819;28;20053;-80
2023/04/24 08:53:16;;;;;;;7.40;1.17;;;20.90;66.80;;;;;;5020900;28;20052;-80
2023/04/24 08:55:46;;;;;;;6.07;1.63;;;20.90;66.90;;;;;;5024355;28;20025;-80
2023/04/24 08:58:13;;;;;;;2.78;1.00;;;20.90;66.90;;;;;;5022071;28;20017;-80
2023/04/24 09:00:39;;;;;;;7.90;1.30;;;20.90;67.00;;;;;;5025380;28;20030;-80
2023/04/24 09:03:06;;;;;;;23.25;1.83;;;20.90;67.20;;;;;;5024593;28;20548;-81
2023/04/24 09:05:33;;;;;;;23.20;2.13;;;21.00;67.70;;;;;;5018650;28;20036;-81
2023/04/24 09:08:01;;;;;;;4.32;1.20;;;21.00;67.60;;;;;;5020905;28;20021;-81
2023/04/24 09:10:30;;;;;;;7.65;1.25;;;21.10;67.60;;;;;;5016857;28;20033;-81
2023/04/24 09:12:58;;;;;;;4.63;1.42;;;21.10;67.40;;;;;;5017026;28;20018;-81
2023/04/24 09:15:24;;;;;;;1.25;0.88;;;21.10;67.50;;;;;;5014823;28;20088;-82
2023/04/24 09:17:50;;;;;;;6.80;1.20;;;21.10;67.70;;;;;;5018382;28;20018;-83
2023/04/24 09:20:16;;;;;;;9.80;1.38;;;21.20;67.60;;;;;;5019606;28;20037;-82
2023/04/24 09:22:43;;;;;;;15.40;2.08;;;21.20;67.70;;;;;;5014686;28;20026;-81
2023/04/24 09:25:11;;;;;;;17.35;1.60;;;21.20;68.20;;;;;;5030470;28;20029;-80
2023/04/24 09:27:42;;;;;;;13.82;1.35;;;21.20;68.80;;;;;;5020115;28;20079;-82
2023/04/24 09:30:08;;;;;;;12.23;1.83;;;21.20;68.10;;;;;;5016560;28;20029;-80
2023/04/24 09:32:34;;;;;;;11.38;1.60;;;21.30;68.10;;;;;;5008696;28;20033;-78
2023/04/24 09:35:14;;;;;;;9.35;1.48;;;21.20;68.20;;;;;;5011870;28;20427;-80
2023/04/24 09:37:41;;;;;;;3.20;1.45;;;21.30;68.40;;;;;;5021342;28;20077;-81
2023/04/24 09:40:15;;;;;;;8.73;1.20;;;21.30;68.30;;;;;;5020343;28;20569;-81
2023/04/24 09:43:02;;;;;;;8.05;1.77;;;21.30;68.40;;;;;;5010337;28;20026;-81
2023/04/24 09:45:34;;;;;;;6.88;1.30;;;21.30;68.30;;;;;;5016800;28;20022;-81
2023/04/24 09:48:00;;;;;;;18.48;1.55;;;21.40;68.60;;;;;;5016106;28;20240;-82
2023/04/24 09:50:25;;;;;;;8.63;1.10;;;21.40;68.30;;;;;;5017517;28;20040;-83
2023/04/24 09:53:08;;;;;;;7.93;1.58;;;21.40;68.30;;;;;;5018693;28;20468;-83
2023/04/24 09:55:40;;;;;;;12.23;1.90;;;21.40;68.30;;;;;;5017540;28;20380;-83
2023/04/24 09:58:07;;;;;;;5.18;1.33;;;21.40;68.40;;;;;;5019383;28;20072;-83
2023/04/24 10:00:34;;;;;;;2.03;1.13;;;21.40;68.30;;;;;;5017993;28;20026;-83
2023/04/24 10:03:04;;;;;;;6.38;1.15;;;21.40;67.70;;;;;;5019128;28;20075;-83
2023/04/24 10:05:32;;;;;;;6.00;1.10;;;21.40;67.00;;;;;;5016809;28;20026;-83
2023/04/24 10:08:05;;;;;;;2.45;1.25;;;21.30;66.80;;;;;;5017096;28;20510;-83
2023/04/24 10:10:33;;;;;;;2.83;1.02;;;21.30;66.40;;;;;;5017004;28;20033;-83
2023/04/24 10:13:00;;;;;;;3.33;0.75;;;21.30;66.20;;;;;;5016497;28;20054;-83
2023/04/24 10:15:26;;;;;;;2.08;1.20;;;21.30;66.40;;;;;;5014469;28;20028;-83
2023/04/24 10:17:53;;;;;;;11.45;1.75;;;21.20;66.80;;;;;;5012495;28;20100;-80
2023/04/24 10:20:20;;;;;;;4.55;1.17;;;21.20;67.80;;;;;;5019924;28;20022;-80
2023/04/24 10:22:49;;;;;;;1.73;1.20;;;21.30;67.80;;;;;;5015198;28;20026;-80
2023/04/24 10:25:18;;;;;;;2.25;1.10;;;21.30;67.60;;;;;;5011814;28;20022;-80
2023/04/24 10:27:45;;;;;;;0.95;0.90;;;21.30;67.30;;;;;;5012706;28;20112;-80
2023/04/24 10:30:12;;;;;;;2.03;0.95;;;21.30;67.50;;;;;;5030207;28;20040;-80
2023/04/24 10:32:38;;;;;;;2.40;1.10;;;21.30;67.20;;;;;;5014775;28;20482;-78
2023/04/24 10:35:04;;;;;;;3.75;1.17;;;21.30;67.10;;;;;;5018694;28;20026;-79
2023/04/24 10:37:36;;;;;;;10.50;0.95;;;21.40;66.90;;;;;;5019757;28;20022;-80
2023/04/24 10:40:02;;;;;;;11.80;1.45;;;21.40;66.70;;;;;;5019458;28;20022;-82
2023/04/24 10:42:28;;;;;;;8.50;1.20;;;21.40;66.70;;;;;;5009066;28;20105;-75
2023/04/24 10:44:55;;;;;;;9.70;1.25;;;21.50;67.10;;;;;;5014409;28;20097;-77
2023/04/24 10:47:21;;;;;;;9.20;1.38;;;21.50;67.20;;;;;;5020112;28;20030;-78
2023/04/24 10:49:50;;;;;;;6.20;1.17;;;21.50;67.40;;;;;;5018185;28;20029;-78
2023/04/24 10:52:16;;;;;;;3.05;1.17;;;21.50;67.50;;;;;;5018434;28;20033;-77
2023/04/24 10:54:46;;;;;;;4.72;1.08;;;21.50;68.30;;;;;;5021255;28;20613;-79
2023/04/24 10:57:24;;;;;;;2.30;1.20;;;21.50;67.90;;;;;;5016698;28;20026;-79
2023/04/24 11:00:09;;;;;;;6.32;1.30;;;21.50;67.70;;;;;;5016660;28;20010;-79
2023/04/24 11:02:43;;;;;;;1.92;1.33;;;21.60;67.70;;;;;;5017084;28;20057;-79
2023/04/24 11:05:10;;;;;;;4.03;0.90;;;21.60;67.80;;;;;;5015581;28;20029;-79
2023/04/24 11:08:11;;;;;;;4.00;1.70;;;21.60;68.20;;;;;;5007025;28;20102;-80
2023/04/24 11:10:44;;;;;;;7.45;1.35;;;21.70;67.90;;;;;;5006411;28;20534;-76
2023/04/24 11:13:10;;;;;;;1.00;0.90;;;21.70;67.70;;;;;;5012687;28;20053;-77
2023/04/24 11:15:35;;;;;;;4.32;0.93;;;21.80;67.70;;;;;;5002355;28;20699;-77
2023/04/24 11:18:01;;;;;;;2.58;0.80;;;21.90;67.80;;;;;;5004295;28;20028;-76
2023/04/24 11:20:27;;;;;;;8.40;1.02;;;21.90;67.50;;;;;;5014986;28;20029;-77
2023/04/24 11:22:57;;;;;;;8.43;1.27;;;21.90;67.40;;;;;;5007719;28;20039;-76
2023/04/24 11:25:23;;;;;;;1.27;1.08;;;21.90;67.20;;;;;;5020173;28;20022;-76
2023/04/24 11:27:49;;;;;;;7.38;1.27;;;21.90;66.90;;;;;;5013195;28;20429;-73
2023/04/24 11:30:20;;;;;;;23.20;3.28;;;21.80;66.90;;;;;;5018833;28;20045;-77
2023/04/24 11:32:51;;;;;;;9.48;3.63;;;21.80;66.80;;;;;;5010688;28;20022;-77
2023/04/24 11:35:24;;;;;;;17.75;4.20;;;21.70;67.00;;;;;;5021746;28;20080;-77
2023/04/24 11:37:51;;;;;;;21.38;4.82;;;21.60;66.90;;;;;;5012334;28;20060;-75
2023/04/24 11:40:20;;;;;;;18.77;4.78;;;21.70;67.20;;;;;;5015095;28;20029;-75
2023/04/24 11:42:50;;;;;;;15.95;6.60;;;21.60;67.40;;;;;;5013429;28;20014;-75
2023/04/24 11:45:25;;;;;;;29.38;6.38;;;21.60;67.60;;;;;;5014699;28;20515;-75
2023/04/24 11:47:51;;;;;;;17.35;4.95;;;21.60;67.70;;;;;;5017721;28;20033;-75
2023/04/24 11:50:19;;;;;;;16.60;6.65;;;21.50;67.80;;;;;;5014850;28;20045;-75
2023/04/24 11:52:46;;;;;;;11.35;5.97;;;21.50;67.90;;;;;;5012156;28;20414;-74
2023/04/24 11:55:14;;;;;;;35.53;10.20;;;21.50;67.90;;;;;;5018194;28;20025;-71
2023/04/24 11:57:46;;;;;;;23.40;7.18;;;21.60;68.00;;;;;;5016717;28;20014;-76
2023/04/24 12:00:33;;;;;;;25.98;7.68;;;21.60;67.80;;;;;;5024665;28;20021;-76
2023/04/24 12:03:07;;;;;;;21.50;7.47;;;21.60;67.90;;;;;;5014933;28;20021;-75
2023/04/24 12:05:34;;;;;;;31.38;8.25;;;21.60;67.80;;;;;;5014241;28;20017;-77
2023/04/24 12:08:00;;;;;;;18.70;7.85;;;21.60;67.90;;;;;;5012778;28;20530;-73
2023/04/24 12:10:28;;;;;;;23.85;7.60;;;21.60;67.90;;;;;;5015624;28;20026;-75
2023/04/24 12:12:55;;;;;;;15.48;7.82;;;21.70;68.10;;;;;;5013329;28;20083;-76
2023/04/24 12:15:21;;;;;;;30.17;7.78;;;21.70;68.30;;;;;;5014000;28;20018;-72
2023/04/24 12:17:47;;;;;;;21.92;7.40;;;21.70;68.20;;;;;;5013018;28;20026;-77
2023/04/24 12:20:13;;;;;;;19.05;6.28;;;21.70;68.50;;;;;;5017376;28;20037;-75
2023/04/24 12:22:54;;;;;;;16.00;6.22;;;21.80;68.50;;;;;;5014448;28;20109;-74
2023/04/24 12:25:21;;;;;;;20.42;6.43;;;21.80;68.70;;;;;;5018358;28;20434;-76
2023/04/24 12:27:53;;;;;;;16.40;6.03;;;21.80;68.70;;;;;;5013414;28;20475;-76
2023/04/24 12:30:19;;;;;;;23.52;6.18;;;21.90;69.00;;;;;;5022117;28;20029;-76
2023/04/24 12:32:49;;;;;;;17.48;6.57;;;21.90;68.90;;;;;;5019593;28;20025;-76
2023/04/24 12:35:22;;;;;;;20.13;6.47;;;21.90;69.00;;;;;;5023132;28;20414;-76
2023/04/24 12:37:48;;;;;;;25.27;6.03;;;21.90;68.80;;;;;;5018585;28;20030;-75
2023/04/24 12:40:14;;;;;;;23.95;5.45;;;22.00;69.10;;;;;;5020280;28;20410;-76
2023/04/24 12:42:47;;;;;;;24.67;7.38;;;22.00;69.00;;;;;;5021518;28;20021;-77
2023/04/24 12:45:14;;;;;;;35.20;7.82;;;22.00;68.40;;;;;;5013511;28;20022;-78